Oristano / Fenosu Airport LIER

Flugplatz Daten

Name: Oristano / Fenosu Airport

Ident: LIER

Lat: 39,89429855

Long: 8,640399933

Platzhöhe: 36 ft

IataCode:

City: Oristano

Homepage: http://www.sogeaor.it

Metar

2020/09/28 01:00
CYLD 280100Z 19006KT 15SM FEW015 BKN220 13/12 A2968 RMK SC2CS4 LAST STFD OBS./NEXT 28 1000UTC PWR OUTAGE EARLIER TODAY NO T 12 SLP061 DENSITY ALT 1800FT

Taf

Gewünschte Webcam nicht vorhanden? Dann fügen Sie eine hinzu. Sie wird dann so schnell wie möglich freigeschaltet
Url: Title: